Lymantown, Wisconsin
Current Conditions -  °F | °C
As of 4:15 PM on Tuesday 25 Nov 2014 (Local Time) from KPBH Reporting Station
Clear Clear  
Wind Chill: 10°   Ceiling: Unl
Heat Index: 18°   Visibility: 10mi
Dew Point: 12°   Wind: 6mph
Humidity: 77%   Direction: 210°SSW
Pressure: 30"   Gusts: NA
Location:  45.9599°N, 90.2362°W
Report Text: KPBH 252215Z AUTO 21005KT 10SM CLR M08/M11 A3000 RMK AO2 T10791113
Loading
Personal Weather Stations






























Interactive Weather Map New forecast layout! Learn more

10-Day Weather Forecast

Advertisements
Track Severe Weather on mobile